createdAt,value
2016-02-20T00:00:49.870Z,87
2016-02-20T00:01:47.889Z,87
2016-02-20T00:02:46.048Z,87
2016-02-20T00:03:44.035Z,87
2016-02-20T00:04:45.006Z,87
2016-02-20T00:05:43.303Z,87
2016-02-20T00:06:41.666Z,87
2016-02-20T00:07:39.591Z,87
2016-02-20T00:08:37.983Z,87
2016-02-20T00:09:35.892Z,87
2016-02-20T00:10:34.161Z,87
2016-02-20T00:11:32.445Z,87
2016-02-20T00:12:30.713Z,87
2016-02-20T00:13:29.060Z,87
2016-02-20T00:14:30.063Z,87
2016-02-20T00:15:28.440Z,87
2016-02-20T00:16:26.615Z,87
2016-02-20T00:17:24.883Z,87
2016-02-20T00:18:23.167Z,87
2016-02-20T00:19:21.560Z,87
2016-02-20T00:20:19.719Z,87
2016-02-20T00:21:18.129Z,87
2016-02-20T00:22:16.288Z,87
2016-02-20T00:23:14.618Z,87
2016-02-20T00:24:15.621Z,87
2016-02-20T00:25:13.904Z,87
2016-02-20T00:26:12.298Z,87
2016-02-20T00:27:10.456Z,87
2016-02-20T00:28:08.726Z,87
2016-02-20T00:29:07.196Z,87
2016-02-20T00:30:05.418Z,87
2016-02-20T00:31:03.582Z,87
2016-02-20T00:32:01.851Z,87
2016-02-20T00:33:00.322Z,87
2016-02-20T00:34:01.200Z,87
2016-02-20T00:34:59.468Z,87
2016-02-20T00:35:57.736Z,87
2016-02-20T00:36:56.129Z,87
2016-02-20T00:38:52.678Z,87
2016-02-20T00:39:50.853Z,87
2016-02-20T00:40:49.263Z,88
2016-02-20T00:41:47.655Z,87
2016-02-20T00:42:46.002Z,88
2016-02-20T00:43:47.130Z,88
2016-02-20T00:44:45.524Z,87
2016-02-20T00:45:43.807Z,87
2016-02-20T00:46:42.107Z,87
2016-02-20T00:47:40.499Z,88
2016-02-20T00:48:38.863Z,88
2016-02-20T00:49:37.193Z,88
2016-02-20T00:50:35.460Z,88
2016-02-20T00:51:33.854Z,88
2016-02-20T00:52:32.232Z,88
2016-02-20T00:53:33.078Z,88
2016-02-20T00:54:31.346Z,88
2016-02-20T00:55:29.632Z,88
2016-02-20T00:56:27.915Z,88
2016-02-20T00:57:26.184Z,88
2016-02-20T00:58:24.467Z,88
2016-02-20T00:59:22.767Z,88
2016-02-20T01:00:20.706Z,87
2016-02-20T01:01:19.037Z,88
2016-02-20T01:02:17.493Z,87
2016-02-20T01:04:16.421Z,87
2016-02-20T01:05:14.548Z,87
2016-02-20T01:06:12.457Z,87
2016-02-20T01:07:10.476Z,87
2016-02-20T01:08:08.634Z,87
2016-02-20T01:09:06.527Z,87
2016-02-20T01:10:04.547Z,87
2016-02-20T01:11:02.564Z,87
2016-02-20T01:12:00.786Z,87
2016-02-20T01:13:01.664Z,87
2016-02-20T01:13:59.683Z,87
2016-02-20T01:14:57.841Z,87
2016-02-20T01:15:55.716Z,87
2016-02-20T01:16:53.749Z,87
2016-02-20T01:17:51.783Z,87
2016-02-20T01:18:49.819Z,87
2016-02-20T01:19:47.946Z,87
2016-02-20T01:20:45.984Z,87
2016-02-20T01:21:43.956Z,87
2016-02-20T01:22:45.052Z,87
2016-02-20T01:23:42.962Z,87
2016-02-20T01:24:41.011Z,87
2016-02-20T01:25:39.138Z,87
2016-02-20T01:26:37.156Z,87
2016-02-20T01:27:35.050Z,87
2016-02-20T01:28:33.084Z,88
2016-02-20T01:29:31.353Z,87
2016-02-20T01:30:29.776Z,88
2016-02-20T01:31:27.967Z,88
2016-02-20T01:32:28.970Z,87
2016-02-20T01:33:27.238Z,87
2016-02-20T01:34:25.522Z,87
2016-02-20T01:35:23.789Z,87
2016-02-20T01:36:22.089Z,87
2016-02-20T01:37:20.374Z,87
2016-02-20T01:38:18.627Z,87
2016-02-20T01:39:16.911Z,87
2016-02-20T01:40:15.195Z,87
2016-02-20T01:41:13.666Z,88
2016-02-20T01:42:14.544Z,87
2016-02-20T01:43:12.905Z,87
2016-02-20T01:44:11.127Z,87
2016-02-20T01:45:09.348Z,87
2016-02-20T01:46:07.663Z,87
2016-02-20T01:47:06.057Z,87
2016-02-20T01:48:04.294Z,87
2016-02-20T01:49:02.577Z,87
2016-02-20T01:50:00.674Z,87
2016-02-20T01:50:59.080Z,87
2016-02-20T01:52:00.195Z,87
2016-02-20T01:52:58.460Z,87
2016-02-20T01:53:56.620Z,87
2016-02-20T01:54:54.904Z,87
2016-02-20T01:55:53.219Z,87
2016-02-20T01:56:51.487Z,87
2016-02-20T01:57:49.740Z,87
2016-02-20T01:58:48.009Z,87
2016-02-20T01:59:46.417Z,87
2016-02-20T02:00:44.779Z,87
2016-02-20T02:01:45.750Z,87
2016-02-20T02:02:43.942Z,88
2016-02-20T02:03:42.459Z,88
2016-02-20T02:04:41.100Z,88
2016-02-20T02:05:39.509Z,88
2016-02-20T02:06:38.184Z,88
2016-02-20T02:07:36.577Z,88
2016-02-20T02:08:35.125Z,88
2016-02-20T02:09:33.753Z,88
2016-02-20T02:10:32.210Z,88
2016-02-20T02:11:33.338Z,88
2016-02-20T02:12:31.747Z,88
2016-02-20T02:13:30.405Z,88
2016-02-20T02:14:28.830Z,88
2016-02-20T02:15:27.458Z,88
2016-02-20T02:16:25.866Z,88
2016-02-20T02:17:24.525Z,88
2016-02-20T02:18:22.934Z,88
2016-02-20T02:19:21.499Z,88
2016-02-20T02:20:20.065Z,88
2016-02-20T02:21:21.068Z,88
2016-02-20T02:22:19.617Z,88
2016-02-20T02:23:18.120Z,87
2016-02-20T02:24:16.560Z,88
2016-02-20T02:25:14.921Z,87
2016-02-20T02:26:13.206Z,88
2016-02-20T02:27:11.771Z,88
2016-02-20T02:28:10.273Z,88
2016-02-20T02:29:08.948Z,88
2016-02-20T02:30:07.529Z,88
2016-02-20T02:31:08.422Z,88
2016-02-20T02:32:06.925Z,88
2016-02-20T02:33:05.459Z,88
2016-02-20T02:34:04.025Z,88
2016-02-20T02:35:02.636Z,88
2016-02-20T02:36:01.167Z,88
2016-02-20T02:36:59.701Z,88
2016-02-20T02:37:58.110Z,88
2016-02-20T02:38:56.675Z,88
2016-02-20T02:39:55.334Z,88
2016-02-20T02:40:56.227Z,88
2016-02-20T02:41:54.761Z,88
2016-02-20T02:42:53.296Z,88
2016-02-20T02:43:51.830Z,88
2016-02-20T02:44:50.380Z,88
2016-02-20T02:45:48.882Z,88
2016-02-20T02:46:47.447Z,88
2016-02-20T02:47:46.090Z,88
2016-02-20T02:48:44.468Z,88
2016-02-20T02:49:43.080Z,88
2016-02-20T02:50:44.223Z,88
2016-02-20T02:51:42.616Z,88
2016-02-20T02:52:41.260Z,88
2016-02-20T02:53:39.653Z,88
2016-02-20T02:54:38.188Z,88
2016-02-20T02:55:36.721Z,88
2016-02-20T02:56:35.271Z,88
2016-02-20T02:57:33.774Z,88
2016-02-20T02:58:32.432Z,88
2016-02-20T02:59:31.029Z,88
2016-02-20T03:00:32.048Z,88
2016-02-20T03:01:30.441Z,88
2016-02-20T03:02:28.975Z,88
2016-02-20T03:03:27.492Z,88
2016-02-20T03:04:26.151Z,88
2016-02-20T03:05:24.592Z,88
2016-02-20T03:06:23.094Z,88
2016-02-20T03:07:21.614Z,88
2016-02-20T03:08:20.303Z,88
2016-02-20T03:09:18.744Z,88
2016-02-20T03:10:19.871Z,88
2016-02-20T03:11:18.280Z,88
2016-02-20T03:12:16.814Z,88
2016-02-20T03:13:15.347Z,88
2016-02-20T03:14:13.992Z,88
2016-02-20T03:15:12.540Z,88
2016-02-20T03:16:10.934Z,88
2016-02-20T03:17:09.468Z,88
2016-02-20T03:18:08.111Z,88
2016-02-20T03:19:06.582Z,88
2016-02-20T03:20:07.585Z,88
2016-02-20T03:21:06.119Z,88
2016-02-20T03:22:04.809Z,88
2016-02-20T03:23:03.215Z,88
2016-02-20T03:24:01.718Z,88
2016-02-20T03:25:00.238Z,88
2016-02-20T03:25:58.787Z,88
2016-02-20T03:26:57.305Z,88
2016-02-20T03:27:55.839Z,88
2016-02-20T03:28:54.451Z,88
2016-02-20T03:29:55.437Z,88
2016-02-20T03:30:53.957Z,88
2016-02-20T03:31:52.505Z,88
2016-02-20T03:32:51.023Z,88
2016-02-20T03:33:49.558Z,88
2016-02-20T03:34:48.232Z,88
2016-02-20T03:35:46.751Z,88
2016-02-20T03:36:45.145Z,88
2016-02-20T03:37:43.678Z,88
2016-02-20T03:38:42.259Z,88
2016-02-20T03:39:43.386Z,88
2016-02-20T03:40:41.796Z,88
2016-02-20T03:41:40.361Z,88
2016-02-20T03:42:38.864Z,88
2016-02-20T03:43:37.381Z,88
2016-02-20T03:44:35.916Z,88
2016-02-20T03:45:34.450Z,88
2016-02-20T03:46:33.124Z,88
2016-02-20T03:47:31.533Z,88
2016-02-20T03:48:30.114Z,88
2016-02-20T03:49:31.242Z,88
2016-02-20T03:50:29.635Z,88
2016-02-20T03:51:28.168Z,88
2016-02-20T03:52:26.703Z,88
2016-02-20T03:53:25.237Z,88
2016-02-20T03:54:23.802Z,88
2016-02-20T03:55:22.289Z,88
2016-02-20T03:56:20.979Z,88
2016-02-20T03:57:19.357Z,88
2016-02-20T03:58:18.062Z,88
2016-02-20T03:59:19.096Z,88
2016-02-20T04:00:17.599Z,88
2016-02-20T04:01:16.009Z,88
2016-02-20T04:02:14.668Z,88
2016-02-20T04:03:13.107Z,88
2016-02-20T04:04:11.610Z,88
2016-02-20T04:05:10.253Z,88
2016-02-20T04:06:08.693Z,88
2016-02-20T04:07:07.193Z,88
2016-02-20T04:08:05.900Z,88
2016-02-20T04:09:06.793Z,88
2016-02-20T04:10:05.452Z,88
2016-02-20T04:11:03.861Z,88
2016-02-20T04:12:02.395Z,88
2016-02-20T04:13:00.913Z,88
2016-02-20T04:13:59.587Z,88
2016-02-20T04:14:57.981Z,88
2016-02-20T04:15:56.530Z,88
2016-02-20T04:16:55.158Z,88
2016-02-20T04:17:53.645Z,88
2016-02-20T04:18:54.633Z,88
2016-02-20T04:19:53.291Z,88
2016-02-20T04:20:51.700Z,88
2016-02-20T04:21:50.344Z,88
2016-02-20T04:22:48.877Z,88
2016-02-20T04:23:47.286Z,88
2016-02-20T04:24:45.821Z,88
2016-02-20T04:25:44.385Z,88
2016-02-20T04:26:42.872Z,88
2016-02-20T04:27:41.453Z,88
2016-02-20T04:28:42.472Z,88
2016-02-20T04:29:41.005Z,88
2016-02-20T04:30:39.540Z,88
2016-02-20T04:31:38.089Z,88
2016-02-20T04:32:36.592Z,88
2016-02-20T04:33:35.235Z,88
2016-02-20T04:34:33.676Z,88
2016-02-20T04:35:32.303Z,88
2016-02-20T04:36:30.712Z,88
2016-02-20T04:37:29.308Z,88
2016-02-20T04:38:30.421Z,88
2016-02-20T04:39:28.954Z,88
2016-02-20T04:40:27.379Z,88
2016-02-20T04:41:26.038Z,88
2016-02-20T04:42:24.462Z,88
2016-02-20T04:43:22.997Z,88
2016-02-20T04:44:21.515Z,88
2016-02-20T04:45:20.034Z,88
2016-02-20T04:46:18.676Z,88
2016-02-20T04:47:17.163Z,88
2016-02-20T04:48:18.292Z,88
2016-02-20T04:49:16.825Z,88
2016-02-20T04:50:15.219Z,88
2016-02-20T04:51:13.737Z,88
2016-02-20T04:52:12.269Z,88
2016-02-20T04:53:10.802Z,88
2016-02-20T04:54:09.461Z,88
2016-02-20T04:55:07.854Z,88
2016-02-20T04:56:06.513Z,88
2016-02-20T04:57:05.094Z,88
2016-02-20T04:58:06.081Z,88
2016-02-20T04:59:04.880Z,88
2016-02-20T05:00:03.540Z,88
2016-02-20T05:01:02.324Z,88
2016-02-20T05:02:01.139Z,88
2016-02-20T05:02:59.657Z,88
2016-02-20T05:03:58.426Z,88
2016-02-20T05:04:57.319Z,88
2016-02-20T05:05:55.977Z,88
2016-02-20T05:06:54.965Z,88
2016-02-20T05:07:55.967Z,88
2016-02-20T05:08:54.626Z,88
2016-02-20T05:09:53.409Z,88
2016-02-20T05:10:52.334Z,88
2016-02-20T05:11:50.994Z,88
2016-02-20T05:12:49.746Z,88
2016-02-20T05:13:48.561Z,88
2016-02-20T05:14:47.362Z,88
2016-02-20T05:15:46.114Z,88
2016-02-20T05:16:44.945Z,88
2016-02-20T05:17:45.963Z,88
2016-02-20T05:18:44.747Z,88
2016-02-20T05:19:43.281Z,88
2016-02-20T05:20:41.814Z,88
2016-02-20T05:21:40.334Z,88
2016-02-20T05:22:38.867Z,88
2016-02-20T05:23:37.400Z,88
2016-02-20T05:24:35.936Z,88
2016-02-20T05:25:34.875Z,88
2016-02-20T05:26:33.456Z,88
2016-02-20T05:27:34.427Z,88
2016-02-20T05:28:33.227Z,88
2016-02-20T05:29:31.652Z,88
2016-02-20T05:30:30.154Z,88
2016-02-20T05:31:28.813Z,88
2016-02-20T05:32:27.207Z,88
2016-02-20T05:33:25.990Z,88
2016-02-20T05:34:24.774Z,88
2016-02-20T05:35:23.590Z,88
2016-02-20T05:36:22.404Z,88
2016-02-20T05:37:23.517Z,88
2016-02-20T05:38:22.207Z,88
2016-02-20T05:39:21.007Z,88
2016-02-20T05:40:19.900Z,88
2016-02-20T05:41:18.528Z,88
2016-02-20T05:42:17.327Z,88
2016-02-20T05:43:16.109Z,88
2016-02-20T05:44:14.892Z,88
2016-02-20T05:45:13.801Z,88
2016-02-20T05:46:12.523Z,88
2016-02-20T05:47:13.666Z,88
2016-02-20T05:48:12.309Z,88
2016-02-20T05:49:11.202Z,88
2016-02-20T05:50:10.018Z,88
2016-02-20T05:51:08.661Z,88
2016-02-20T05:52:07.570Z,88
2016-02-20T05:53:06.370Z,88
2016-02-20T05:54:04.794Z,88
2016-02-20T05:55:03.281Z,88
2016-02-20T05:56:02.144Z,88
2016-02-20T05:57:03.131Z,88
2016-02-20T05:58:02.039Z,88
2016-02-20T05:59:00.698Z,88
2016-02-20T05:59:59.544Z,88
2016-02-20T06:00:58.250Z,88
2016-02-20T06:01:57.159Z,88
2016-02-20T06:02:55.960Z,88
2016-02-20T06:03:54.633Z,88
2016-02-20T06:04:53.386Z,88
2016-02-20T06:05:52.342Z,88
2016-02-20T06:06:53.235Z,88
2016-02-20T06:07:52.035Z,88
2016-02-20T06:08:50.896Z,88
2016-02-20T06:09:49.571Z,88
2016-02-20T06:10:48.371Z,88
2016-02-20T06:12:45.924Z,88
2016-02-20T06:13:44.723Z,88
2016-02-20T06:14:43.476Z,88
2016-02-20T06:15:42.322Z,88
2016-02-20T06:16:43.356Z,88
2016-02-20T06:17:42.109Z,88
2016-02-20T06:18:41.002Z,88
2016-02-20T06:19:39.786Z,88
2016-02-20T06:20:38.476Z,88
2016-02-20T06:21:37.244Z,88
2016-02-20T06:22:36.028Z,88
2016-02-20T06:23:34.812Z,88
2016-02-20T06:24:33.737Z,88
2016-02-20T06:25:32.458Z,88
2016-02-20T06:26:33.445Z,88
2016-02-20T06:27:32.230Z,88
2016-02-20T06:28:30.997Z,88
2016-02-20T06:29:29.797Z,88
2016-02-20T06:30:28.581Z,88
2016-02-20T06:31:27.397Z,88
2016-02-20T06:32:26.149Z,88
2016-02-20T06:33:24.918Z,88
2016-02-20T06:34:23.732Z,88
2016-02-20T06:35:22.563Z,88
2016-02-20T06:36:23.596Z,88
2016-02-20T06:37:22.350Z,88
2016-02-20T06:38:21.134Z,88
2016-02-20T06:39:20.043Z,88
2016-02-20T06:40:18.686Z,88
2016-02-20T06:41:17.470Z,88
2016-02-20T06:42:16.376Z,88
2016-02-20T06:43:15.035Z,88
2016-02-20T06:44:13.945Z,88
2016-02-20T06:45:12.682Z,89
2016-02-20T06:46:13.668Z,88
2016-02-20T06:47:12.561Z,89
2016-02-20T06:48:11.486Z,88
2016-02-20T06:49:10.286Z,88
2016-02-20T06:50:09.179Z,88
2016-02-20T06:51:07.838Z,88
2016-02-20T06:52:06.637Z,88
2016-02-20T06:53:05.406Z,88
2016-02-20T06:54:04.221Z,88
2016-02-20T06:55:03.053Z,88
2016-02-20T06:56:04.164Z,88
2016-02-20T06:57:02.823Z,88
2016-02-20T06:58:01.732Z,88
2016-02-20T06:59:00.391Z,88
2016-02-20T06:59:59.316Z,88
2016-02-20T07:00:57.990Z,88
2016-02-20T07:01:56.727Z,88
2016-02-20T07:02:55.511Z,89
2016-02-20T07:03:54.607Z,88
2016-02-20T07:04:53.422Z,88
2016-02-20T07:05:54.535Z,88
2016-02-20T07:06:53.177Z,88
2016-02-20T07:07:51.962Z,89
2016-02-20T07:08:50.995Z,88
2016-02-20T07:09:49.811Z,88
2016-02-20T07:10:48.563Z,88
2016-02-20T07:11:47.472Z,88
2016-02-20T07:12:46.273Z,88
2016-02-20T07:13:44.915Z,88
2016-02-20T07:14:43.762Z,88
2016-02-20T07:15:44.765Z,88
2016-02-20T07:16:43.658Z,88
2016-02-20T07:17:42.442Z,88
2016-02-20T07:18:41.116Z,88
2016-02-20T07:19:39.932Z,88
2016-02-20T07:20:38.684Z,88
2016-02-20T07:21:37.452Z,88
2016-02-20T07:22:36.252Z,89
2016-02-20T07:23:35.395Z,89
2016-02-20T07:24:34.508Z,88
2016-02-20T07:25:35.495Z,89
2016-02-20T07:26:34.419Z,89
2016-02-20T07:27:33.047Z,89
2016-02-20T07:28:32.486Z,89
2016-02-20T07:29:31.553Z,89
2016-02-20T07:30:30.555Z,89
2016-02-20T07:31:29.619Z,89
2016-02-20T07:32:28.654Z,89
2016-02-20T07:33:27.813Z,89
2016-02-20T07:34:26.878Z,89
2016-02-20T07:35:27.771Z,89
2016-02-20T07:36:26.931Z,89
2016-02-20T07:37:25.840Z,89
2016-02-20T07:38:24.998Z,89
2016-02-20T07:39:23.938Z,89
2016-02-20T07:40:22.957Z,89
2016-02-20T07:41:21.990Z,89
2016-02-20T07:42:21.071Z,89
2016-02-20T07:43:20.184Z,89
2016-02-20T07:44:19.280Z,89
2016-02-20T07:45:20.157Z,89
2016-02-20T07:46:19.317Z,89
2016-02-20T07:47:18.242Z,89
2016-02-20T07:48:17.382Z,89
2016-02-20T07:49:16.306Z,89
2016-02-20T07:50:15.356Z,88
2016-02-20T07:51:14.250Z,88
2016-02-20T07:52:12.908Z,89
2016-02-20T07:53:12.067Z,88
2016-02-20T07:54:10.897Z,89
2016-02-20T07:55:11.901Z,89
2016-02-20T07:56:10.950Z,89
2016-02-20T07:57:09.875Z,89
2016-02-20T07:58:08.597Z,89
2016-02-20T07:59:08.067Z,89
2016-02-20T08:00:06.977Z,89
2016-02-20T08:01:06.026Z,89
2016-02-20T08:02:05.169Z,89
2016-02-20T08:03:04.078Z,89
2016-02-20T08:04:03.190Z,89
2016-02-20T08:05:04.225Z,89
2016-02-20T08:06:03.243Z,89
2016-02-20T08:07:02.277Z,89
2016-02-20T08:08:01.296Z,89
2016-02-20T08:09:00.454Z,89
2016-02-20T08:09:59.487Z,89
2016-02-20T08:10:58.413Z,89
2016-02-20T08:11:57.446Z,89
2016-02-20T08:12:56.496Z,89
2016-02-20T08:13:55.607Z,89
2016-02-20T08:14:56.704Z,89
2016-02-20T08:15:55.738Z,89
2016-02-20T08:16:54.678Z,89
2016-02-20T08:17:53.698Z,89
2016-02-20T08:18:52.731Z,89
2016-02-20T08:19:51.795Z,89
2016-02-20T08:20:50.923Z,89
2016-02-20T08:21:49.958Z,89
2016-02-20T08:22:48.992Z,89
2016-02-20T08:23:47.978Z,89
2016-02-20T08:24:48.966Z,89
2016-02-20T08:25:48.031Z,89
2016-02-20T08:26:47.049Z,89
2016-02-20T08:27:46.193Z,89
2016-02-20T08:28:45.133Z,89
2016-02-20T08:29:44.291Z,89
2016-02-20T08:30:43.185Z,89
2016-02-20T08:31:42.344Z,89
2016-02-20T08:32:41.269Z,89
2016-02-20T08:33:40.349Z,89
2016-02-20T08:34:41.368Z,89
2016-02-20T08:36:39.435Z,89
2016-02-20T08:37:38.470Z,89
2016-02-20T08:38:37.517Z,89
2016-02-20T08:39:36.525Z,89
2016-02-20T08:40:35.548Z,89
2016-02-20T08:41:34.570Z,89
2016-02-20T08:42:33.624Z,89
2016-02-20T08:43:32.679Z,89
2016-02-20T08:44:33.709Z,89
2016-02-20T08:45:32.723Z,89
2016-02-20T08:46:31.752Z,89
2016-02-20T08:47:30.907Z,89
2016-02-20T08:48:29.828Z,89
2016-02-20T08:49:28.876Z,89
2016-02-20T08:50:27.877Z,89
2016-02-20T08:51:27.035Z,89
2016-02-20T08:52:25.973Z,89
2016-02-20T08:53:25.163Z,89
2016-02-20T08:54:26.196Z,89
2016-02-20T08:55:25.089Z,89
2016-02-20T08:56:24.138Z,89
2016-02-20T08:57:23.187Z,89
2016-02-20T08:58:22.189Z,89
2016-02-20T08:59:21.224Z,89
2016-02-20T09:00:20.302Z,89
2016-02-20T09:01:19.413Z,89
2016-02-20T09:02:18.478Z,89
2016-02-20T09:03:17.465Z,89
2016-02-20T09:04:18.451Z,89
2016-02-20T09:05:17.470Z,89
2016-02-20T09:06:16.503Z,89
2016-02-20T09:07:15.569Z,89
2016-02-20T09:08:14.603Z,89
2016-02-20T09:09:13.606Z,89
2016-02-20T09:10:12.686Z,89
2016-02-20T09:11:11.830Z,89
2016-02-20T09:12:10.723Z,89
2016-02-20T09:13:09.819Z,89
2016-02-20T09:14:10.821Z,89
2016-02-20T09:15:09.966Z,89
2016-02-20T09:16:08.890Z,89
2016-02-20T09:17:07.939Z,89
2016-02-20T09:18:07.004Z,89
2016-02-20T09:19:06.007Z,89
2016-02-20T09:20:05.151Z,89
2016-02-20T09:21:04.074Z,89
2016-02-20T09:22:03.156Z,89
2016-02-20T09:23:02.315Z,89
2016-02-20T09:24:03.207Z,89
2016-02-20T09:25:02.368Z,89
2016-02-20T09:26:01.292Z,89
2016-02-20T09:27:00.325Z,89
2016-02-20T09:27:59.344Z,89
2016-02-20T09:28:58.425Z,89
2016-02-20T09:29:57.428Z,89
2016-02-20T09:30:56.587Z,89
2016-02-20T09:31:55.526Z,89
2016-02-20T09:32:54.186Z,89
2016-02-20T09:33:55.750Z,89
2016-02-20T09:34:54.628Z,89
2016-02-20T09:35:53.662Z,89
2016-02-20T09:36:52.697Z,89
2016-02-20T09:37:51.855Z,89
2016-02-20T09:38:50.920Z,89
2016-02-20T09:39:49.970Z,89
2016-02-20T09:40:48.847Z,89
2016-02-20T09:41:48.006Z,89
2016-02-20T09:42:47.134Z,89
2016-02-20T09:43:47.980Z,89
2016-02-20T09:44:47.030Z,89
2016-02-20T09:45:46.064Z,89
2016-02-20T09:46:45.207Z,89
2016-02-20T09:47:44.132Z,89
2016-02-20T09:48:43.275Z,89
2016-02-20T09:49:42.309Z,89
2016-02-20T09:50:41.234Z,89
2016-02-20T09:51:40.268Z,89
2016-02-20T09:52:39.365Z,89
2016-02-20T09:53:40.367Z,89
2016-02-20T09:54:39.401Z,89
2016-02-20T09:55:38.466Z,89
2016-02-20T09:56:37.578Z,89
2016-02-20T09:57:36.503Z,89
2016-02-20T09:58:35.537Z,89
2016-02-20T09:59:34.570Z,89
2016-02-20T10:00:33.621Z,89
2016-02-20T10:01:32.639Z,89
2016-02-20T10:02:31.860Z,89
2016-02-20T10:03:32.738Z,89
2016-02-20T10:04:31.787Z,89
2016-02-20T10:05:30.931Z,89
2016-02-20T10:06:29.855Z,89
2016-02-20T10:07:28.889Z,89
2016-02-20T10:08:27.938Z,89
2016-02-20T10:09:26.957Z,89
2016-02-20T10:10:25.989Z,89
2016-02-20T10:11:25.147Z,89
2016-02-20T10:12:24.228Z,89
2016-02-20T10:13:25.278Z,89
2016-02-20T10:14:24.155Z,89
2016-02-20T10:15:23.205Z,89
2016-02-20T10:16:22.238Z,89
2016-02-20T10:17:21.272Z,89
2016-02-20T10:18:20.338Z,89
2016-02-20T10:19:19.388Z,89
2016-02-20T10:20:18.391Z,89
2016-02-20T10:21:17.440Z,89
2016-02-20T10:22:16.613Z,89
2016-02-20T10:23:17.524Z,89
2016-02-20T10:24:16.541Z,89
2016-02-20T10:25:15.575Z,89
2016-02-20T10:26:14.749Z,89
2016-02-20T10:27:13.768Z,89
2016-02-20T10:28:12.693Z,89
2016-02-20T10:29:11.727Z,89
2016-02-20T10:30:10.776Z,89
2016-02-20T10:31:09.795Z,89
2016-02-20T10:32:08.876Z,89
2016-02-20T10:33:10.003Z,89
2016-02-20T10:34:08.928Z,89
2016-02-20T10:35:07.977Z,89
2016-02-20T10:36:07.011Z,89
2016-02-20T10:37:05.623Z,89
2016-02-20T10:38:05.111Z,89
2016-02-20T10:39:04.097Z,89
2016-02-20T10:40:03.147Z,89
2016-02-20T10:41:02.165Z,89
2016-02-20T10:42:01.262Z,89
2016-02-20T10:43:02.280Z,89
2016-02-20T10:44:01.423Z,89
2016-02-20T10:45:00.348Z,89
2016-02-20T10:45:59.585Z,89
2016-02-20T10:46:58.431Z,89
2016-02-20T10:47:57.481Z,89
2016-02-20T10:48:56.499Z,89
2016-02-20T10:49:55.518Z,89
2016-02-20T10:50:54.567Z,89
2016-02-20T10:51:53.773Z,89
2016-02-20T10:52:54.682Z,89
2016-02-20T10:53:53.809Z,89
2016-02-20T10:54:52.718Z,89
2016-02-20T10:55:51.768Z,89
2016-02-20T10:56:50.958Z,89
2016-02-20T10:57:49.836Z,89
2016-02-20T10:58:48.885Z,89
2016-02-20T10:59:47.903Z,89
2016-02-20T11:00:47.078Z,89
2016-02-20T11:01:46.050Z,89
2016-02-20T11:02:47.068Z,89
2016-02-20T11:03:46.102Z,89
2016-02-20T11:04:45.262Z,89
2016-02-20T11:05:44.154Z,89
2016-02-20T11:06:43.189Z,89
2016-02-20T11:07:42.487Z,89
2016-02-20T11:08:41.787Z,89
2016-02-20T11:09:41.056Z,89
2016-02-20T11:10:40.730Z,89
2016-02-20T11:11:40.234Z,89
2016-02-20T11:12:41.205Z,89
2016-02-20T11:13:40.770Z,89
2016-02-20T11:14:40.398Z,89
2016-02-20T11:15:39.931Z,89
2016-02-20T11:16:39.372Z,89
2016-02-20T11:18:38.471Z,89
2016-02-20T11:19:38.005Z,89
2016-02-20T11:20:37.539Z,89
2016-02-20T11:21:37.135Z,89
2016-02-20T11:22:38.153Z,90
2016-02-20T11:23:37.938Z,90
2016-02-20T11:24:37.721Z,89
2016-02-20T11:25:37.271Z,89
2016-02-20T11:26:36.805Z,89
2016-02-20T11:27:36.510Z,89
2016-02-20T11:28:35.810Z,89
2016-02-20T11:29:34.922Z,89
2016-02-20T11:30:33.972Z,89
2016-02-20T11:31:33.160Z,89
2016-02-20T11:32:34.071Z,89
2016-02-20T11:33:33.212Z,89
2016-02-20T11:34:32.121Z,89
2016-02-20T11:35:31.295Z,89
2016-02-20T11:36:30.187Z,89
2016-02-20T11:37:29.237Z,89
2016-02-20T11:38:28.272Z,89
2016-02-20T11:39:27.306Z,89
2016-02-20T11:40:26.356Z,89
2016-02-20T11:41:25.437Z,89
2016-02-20T11:42:26.454Z,89
2016-02-20T11:43:25.723Z,89
2016-02-20T11:44:25.039Z,89
2016-02-20T11:45:24.306Z,89
2016-02-20T11:46:23.855Z,89
2016-02-20T11:47:23.405Z,89
2016-02-20T11:48:22.939Z,89
2016-02-20T11:49:22.473Z,89
2016-02-20T11:50:22.023Z,89
2016-02-20T11:51:21.619Z,89
2016-02-20T11:52:22.638Z,89
2016-02-20T11:53:22.172Z,90
2016-02-20T11:54:21.971Z,90
2016-02-20T11:55:22.036Z,90
2016-02-20T11:56:22.070Z,90
2016-02-20T11:57:22.119Z,90
2016-02-20T11:58:22.185Z,90
2016-02-20T11:59:22.218Z,90
2016-02-20T12:00:22.518Z,90
2016-02-20T12:01:22.896Z,90
2016-02-20T12:02:23.899Z,91
2016-02-20T12:03:24.448Z,91
2016-02-20T12:04:25.013Z,91
2016-02-20T12:05:25.579Z,91
2016-02-20T12:06:26.129Z,91
2016-02-20T12:07:26.679Z,91
2016-02-20T12:08:27.243Z,91
2016-02-20T12:09:27.793Z,91
2016-02-20T12:10:28.359Z,91
2016-02-20T12:11:28.954Z,91
2016-02-20T12:12:29.972Z,91
2016-02-20T12:13:30.272Z,91
2016-02-20T12:14:30.572Z,91
2016-02-20T12:15:30.872Z,91
2016-02-20T12:16:31.170Z,90
2016-02-20T12:17:31.253Z,90
2016-02-20T12:18:31.316Z,90
2016-02-20T12:19:31.351Z,90
2016-02-20T12:20:31.385Z,90
2016-02-20T12:21:31.527Z,90
2016-02-20T12:22:32.499Z,90
2016-02-20T12:23:32.533Z,90
2016-02-20T12:24:32.583Z,90
2016-02-20T12:25:32.649Z,90
2016-02-20T12:26:32.292Z,90
2016-02-20T12:27:32.732Z,90
2016-02-20T12:28:32.782Z,90
2016-02-20T12:29:32.830Z,90
2016-02-20T12:30:32.896Z,90
2016-02-20T12:31:32.992Z,90
2016-02-20T12:32:33.995Z,90
2016-02-20T12:33:34.045Z,90
2016-02-20T12:34:34.094Z,90
2016-02-20T12:35:34.144Z,90
2016-02-20T12:36:34.179Z,90
2016-02-20T12:37:34.259Z,90
2016-02-20T12:38:34.293Z,90
2016-02-20T12:39:34.358Z,90
2016-02-20T12:40:34.392Z,90
2016-02-20T12:41:34.488Z,90
2016-02-20T12:42:35.522Z,90
2016-02-20T12:43:35.540Z,90
2016-02-20T12:44:35.590Z,90
2016-02-20T12:45:35.640Z,90
2016-02-20T12:46:35.689Z,90
2016-02-20T12:48:35.788Z,90
2016-02-20T12:49:35.838Z,90
2016-02-20T12:50:35.887Z,90
2016-02-20T12:51:36.094Z,90
2016-02-20T12:52:37.002Z,90
2016-02-20T12:53:36.786Z,90
2016-02-20T12:54:36.586Z,89
2016-02-20T12:56:35.653Z,89
2016-02-20T12:57:34.953Z,89
2016-02-20T12:58:34.238Z,89
2016-02-20T12:59:33.521Z,89
2016-02-20T13:00:32.570Z,89
2016-02-20T13:01:31.652Z,89
2016-02-20T13:02:32.654Z,89
2016-02-20T13:03:31.688Z,89
2016-02-20T13:04:30.738Z,89
2016-02-20T13:05:30.006Z,89
2016-02-20T13:06:29.305Z,89
2016-02-20T13:07:28.652Z,89
2016-02-20T13:08:28.139Z,89
2016-02-20T13:09:27.688Z,89
2016-02-20T13:10:27.223Z,90
2016-02-20T13:11:27.100Z,90
2016-02-20T13:12:28.103Z,90
2016-02-20T13:13:28.136Z,90
2016-02-20T13:14:28.186Z,90
2016-02-20T13:15:28.501Z,91
2016-02-20T13:16:29.051Z,91
2016-02-20T13:17:29.617Z,91
2016-02-20T13:18:30.166Z,91
2016-02-20T13:19:30.762Z,91
2016-02-20T13:20:31.531Z,91
2016-02-20T13:21:32.409Z,91
2016-02-20T13:22:33.395Z,92
2016-02-20T13:23:34.460Z,92
2016-02-20T13:24:35.526Z,92
2016-02-20T13:25:36.576Z,92
2016-02-20T13:26:37.641Z,92
2016-02-20T13:27:38.706Z,92
2016-02-20T13:28:39.772Z,92
2016-02-20T13:29:40.852Z,92
2016-02-20T13:30:41.902Z,92
2016-02-20T13:31:43.030Z,92
2016-02-20T13:32:44.032Z,92
2016-02-20T13:33:45.097Z,92
2016-02-20T13:34:46.272Z,92
2016-02-20T13:35:47.227Z,92
2016-02-20T13:36:48.293Z,92
2016-02-20T13:37:49.358Z,92
2016-02-20T13:38:50.533Z,92
2016-02-20T13:39:51.473Z,92
2016-02-20T13:40:52.538Z,92
2016-02-20T13:41:53.650Z,92
2016-02-20T13:42:54.669Z,92
2016-02-20T13:43:55.718Z,92
2016-02-20T13:44:56.768Z,91
2016-02-20T13:45:57.349Z,90
2016-02-20T13:46:57.133Z,88
2016-02-20T13:47:55.651Z,86
2016-02-20T13:48:56.701Z,83
2016-02-20T13:49:55.985Z,80
2016-02-20T13:50:53.768Z,79
2016-02-20T13:51:54.615Z,77
2016-02-20T13:52:55.649Z,75
2016-02-20T13:53:54.432Z,74
2016-02-20T13:54:52.435Z,72
2016-02-20T13:55:53.532Z,71
2016-02-20T13:56:54.082Z,70
2016-02-20T13:57:53.850Z,69
2016-02-20T13:58:53.259Z,69
2016-02-20T13:59:52.184Z,68
2016-02-20T14:00:50.733Z,67
2016-02-20T14:01:49.017Z,67
2016-02-20T14:02:50.035Z,66
2016-02-20T14:03:47.803Z,66
2016-02-20T14:04:49.369Z,66
2016-02-20T14:05:50.934Z,66
2016-02-20T14:06:52.515Z,66
2016-02-20T14:07:54.080Z,66
2016-02-20T14:08:55.661Z,65
2016-02-20T14:09:56.976Z,65
2016-02-20T14:10:58.400Z,65